Portada
METAR-TAF:

METAR-TAF

Aeropuertos :

Suva, Fiyi

latitud: 18-03S, longitud: 178-34E, altitud: 5 m

Observación

El informe se hizo hace 22 minutos, a las 11:00 UTC
Viento 1 kt con dirección variable
Temperatura 26°C
Humedad 94%
Presión 1014 hPa
Visibilidad 10 km o más
Nubes dispersas a una altura de 2000 ft
Cielo nuboso a una altura de 4500 ft

METAR: NFNA 151100Z VRB01KT 9999 SCT020 BKN045 26/25 Q1014

Hora: 23:22 (11:22 UTC)

Pronóstico

El informe se hizo hace 6 horas y 18 minutos, a las 05:04 UTC
Pronóstico válido del 15 a las 06 UTC al 16 a las 06 UTC
Viento 3 kt con dirección variable
Visibilidad 10 km o más
Nubes dispersas a una altura de 2000 ft
Nubes dispersas a una altura de 4500 ft

TAF: NFNA 150504Z 1506/1606 VRB03KT 9999 SCT020 SCT045

Observaciones y pronósticos meteorológicos de más de 4000 aeropuertos (mensajes METAR y TAF).

Los puntos amarillos y rojos representan las estaciones disponibles.

Ponga el ratón en el punto deseado para ver el nombre de la estación.

Haga clic para ver las observaciones y los pronósticos meteorológicos.

Para cambiar el mapa : haga clic en los botones verdes con una cruz de color negro para hacer un zoom, en el botón verde con un guión para alejar o en las flechas verdes para mapas adyacentes.


METAR-TAF: